Time;durP1;ratioP1;P1;durP2;ratioP2;P2;SDS_P1;SDS_P2;PMS_P1;PMS_P2;Temp;Humidity;BMP_temperature;BMP_pressure;BME280_temperature;BME280_humidity;BME280_pressure;Samples;Min_cycle;Max_cycle;Signal;HPM_P1;HPM_P2
2022/12/13 00:01:16;;;;;;;45.38;24.30;;;-4.60;99.90;;;;;;5084009;28;20040;-67
2022/12/13 00:03:42;;;;;;;55.88;26.20;;;-4.60;99.90;;;;;;5070445;28;20052;-67
2022/12/13 00:06:10;;;;;;;54.47;26.98;;;-4.50;99.90;;;;;;5081732;28;20047;-67
2022/12/13 00:08:36;;;;;;;56.42;27.55;;;-4.30;99.90;;;;;;5083910;28;20036;-67
2022/12/13 00:11:05;;;;;;;55.33;27.42;;;-4.10;99.90;;;;;;5045945;28;20060;-67
2022/12/13 00:13:31;;;;;;;57.67;27.73;;;-3.80;99.90;;;;;;5085363;28;20052;-67
2022/12/13 00:15:58;;;;;;;47.83;25.88;;;-3.80;99.90;;;;;;5087403;28;20048;-67
2022/12/13 00:18:24;;;;;;;53.63;27.63;;;-3.80;99.90;;;;;;5064526;28;20041;-67
2022/12/13 00:20:50;;;;;;;56.25;28.17;;;-3.70;99.90;;;;;;5078723;28;20044;-67
2022/12/13 00:23:16;;;;;;;52.75;25.90;;;-3.60;99.90;;;;;;5074024;28;20048;-67
2022/12/13 00:25:42;;;;;;;61.38;28.73;;;-3.60;99.90;;;;;;5061179;28;20055;-66
2022/12/13 00:28:07;;;;;;;68.40;32.58;;;-3.60;99.90;;;;;;5085243;28;20047;-67
2022/12/13 00:30:34;;;;;;;64.03;31.55;;;-3.60;99.90;;;;;;5064684;28;20072;-67
2022/12/13 00:32:59;;;;;;;59.05;28.50;;;-3.60;99.90;;;;;;5073667;28;20056;-67
2022/12/13 00:35:25;;;;;;;52.47;26.27;;;-3.50;99.90;;;;;;5075389;28;20075;-67
2022/12/13 00:37:51;;;;;;;53.47;28.10;;;-3.60;99.90;;;;;;5049708;28;20409;-67
2022/12/13 00:40:17;;;;;;;58.00;27.65;;;-3.60;99.90;;;;;;5074212;28;20049;-67
2022/12/13 00:42:42;;;;;;;48.72;24.27;;;-3.50;99.90;;;;;;5085866;28;20104;-67
2022/12/13 00:45:08;;;;;;;46.25;25.10;;;-3.50;99.90;;;;;;5075850;28;20045;-66
2022/12/13 00:47:35;;;;;;;44.00;22.30;;;-3.60;99.90;;;;;;5068735;28;20087;-66
2022/12/13 00:50:02;;;;;;;48.65;24.25;;;-3.70;99.90;;;;;;5077646;28;20076;-67
2022/12/13 00:52:28;;;;;;;51.53;25.30;;;-3.70;99.90;;;;;;5081892;28;20122;-66
2022/12/13 00:54:53;;;;;;;59.85;27.98;;;-3.60;99.90;;;;;;5070195;28;20076;-66
2022/12/13 00:57:20;;;;;;;56.97;29.23;;;-3.50;99.90;;;;;;5081783;28;20049;-66
2022/12/13 00:59:46;;;;;;;55.97;28.67;;;-3.50;99.90;;;;;;5075529;28;20051;-66
2022/12/13 01:02:11;;;;;;;56.15;28.13;;;-3.50;99.90;;;;;;5067971;28;20076;-66
2022/12/13 01:04:37;;;;;;;56.60;27.35;;;-3.50;99.90;;;;;;5086507;28;20056;-66
2022/12/13 01:07:03;;;;;;;54.85;27.40;;;-3.60;99.90;;;;;;5066855;28;20106;-66
2022/12/13 01:09:31;;;;;;;54.60;27.38;;;-3.60;99.90;;;;;;5067507;28;20056;-66
2022/12/13 01:12:04;;;;;;;52.85;27.25;;;-3.60;99.90;;;;;;5085761;28;20052;-67
2022/12/13 01:14:32;;;;;;;48.38;25.67;;;-3.60;99.90;;;;;;5086270;28;20123;-66
2022/12/13 01:16:58;;;;;;;47.20;25.80;;;-3.70;99.90;;;;;;5074702;28;20056;-66
2022/12/13 01:19:27;;;;;;;48.53;25.50;;;-3.80;99.90;;;;;;5086452;28;20532;-66
2022/12/13 01:21:54;;;;;;;50.03;25.77;;;-3.80;99.90;;;;;;5085020;28;20052;-66
2022/12/13 01:24:21;;;;;;;52.72;26.67;;;-3.80;99.90;;;;;;5073928;28;20048;-66
2022/12/13 01:26:47;;;;;;;49.00;25.70;;;-3.80;99.90;;;;;;5083276;28;20128;-66
2022/12/13 01:29:13;;;;;;;46.80;24.42;;;-4.00;99.90;;;;;;5082381;28;20041;-67
2022/12/13 01:31:40;;;;;;;52.63;26.10;;;-4.20;99.90;;;;;;5079981;28;20059;-67
2022/12/13 01:34:10;;;;;;;49.88;24.85;;;-4.10;99.90;;;;;;5067500;28;20052;-66
2022/12/13 01:36:37;;;;;;;47.28;23.23;;;-4.10;99.90;;;;;;5086580;28;20464;-67
2022/12/13 01:39:03;;;;;;;46.10;24.58;;;-4.10;99.90;;;;;;5067314;28;20149;-67
2022/12/13 01:41:31;;;;;;;40.90;23.08;;;-4.20;99.90;;;;;;5077728;28;20500;-67
2022/12/13 01:44:05;;;;;;;45.50;23.77;;;-4.30;99.90;;;;;;5085552;28;20048;-67
2022/12/13 01:46:33;;;;;;;44.00;23.40;;;-4.30;99.90;;;;;;5073087;28;20049;-66
2022/12/13 01:49:09;;;;;;;46.00;23.42;;;-4.30;99.90;;;;;;5085483;28;20033;-66
2022/12/13 01:51:41;;;;;;;45.28;24.05;;;-4.40;99.90;;;;;;5083407;28;20045;-66
2022/12/13 01:54:11;;;;;;;45.17;22.10;;;-4.40;99.90;;;;;;5073215;28;20044;-66
2022/12/13 01:56:46;;;;;;;42.05;22.00;;;-4.50;99.90;;;;;;5084498;28;20063;-66
2022/12/13 01:59:14;;;;;;;46.65;23.30;;;-4.50;99.90;;;;;;5066794;28;20036;-66
2022/12/13 02:01:40;;;;;;;44.53;22.23;;;-4.60;99.90;;;;;;5084582;28;20123;-66
2022/12/13 02:04:06;;;;;;;42.22;23.98;;;-4.50;99.90;;;;;;5085443;28;20041;-66
2022/12/13 02:06:40;;;;;;;45.15;23.52;;;-4.50;99.90;;;;;;5081475;28;20033;-66
2022/12/13 02:09:07;;;;;;;45.10;23.85;;;-4.40;99.90;;;;;;5061732;28;20501;-67
2022/12/13 02:11:36;;;;;;;48.17;23.83;;;-4.40;99.90;;;;;;5061066;28;20107;-67
2022/12/13 02:14:02;;;;;;;40.20;21.35;;;-4.30;99.90;;;;;;5075652;28;20110;-66
2022/12/13 02:16:55;;;;;;;39.97;20.65;;;-4.50;99.90;;;;;;5083456;28;20444;-66
2022/12/13 02:20:03;;;;;;;38.17;20.23;;;-4.60;99.90;;;;;;5083922;28;20048;-66
2022/12/13 02:22:56;;;;;;;42.35;22.65;;;-4.80;99.90;;;;;;5085082;28;20044;-66
2022/12/13 02:26:01;;;;;;;41.95;21.48;;;-4.90;99.90;;;;;;5074854;28;20045;-66
2022/12/13 02:29:04;;;;;;;42.35;20.88;;;-4.90;99.90;;;;;;5085211;28;20058;-67
2022/12/13 02:31:57;;;;;;;42.25;20.95;;;-4.90;99.90;;;;;;5078476;28;20078;-66
2022/12/13 02:34:27;;;;;;;37.47;20.55;;;-5.00;99.90;;;;;;5067795;28;20040;-67
2022/12/13 02:37:02;;;;;;;39.83;20.50;;;-5.00;99.90;;;;;;5066650;28;20040;-66
2022/12/13 02:39:35;;;;;;;43.33;23.75;;;-5.00;99.90;;;;;;5084553;28;20058;-66
2022/12/13 02:42:05;;;;;;;39.90;21.80;;;-5.00;99.90;;;;;;5073796;28;20049;-66
2022/12/13 02:44:38;;;;;;;42.03;21.95;;;-5.00;99.90;;;;;;5096570;28;20048;-66
2022/12/13 02:47:14;;;;;;;41.92;20.90;;;-5.00;99.90;;;;;;5080198;28;20068;-66
2022/12/13 02:49:45;;;;;;;42.15;21.08;;;-5.00;99.90;;;;;;5051776;28;20053;-66
2022/12/13 02:52:13;;;;;;;45.50;23.67;;;-5.00;99.90;;;;;;5066646;28;20062;-65
2022/12/13 02:54:40;;;;;;;44.35;22.67;;;-5.10;99.90;;;;;;5073117;28;20033;-66
2022/12/13 02:57:30;;;;;;;41.38;21.75;;;-5.10;99.90;;;;;;5075116;28;20101;-66
2022/12/13 02:59:59;;;;;;;42.78;22.17;;;-5.00;99.90;;;;;;5069502;28;20086;-66
2022/12/13 03:03:02;;;;;;;41.70;20.60;;;-5.00;99.90;;;;;;5084649;28;20098;-65
2022/12/13 03:09:28;;;;;;;45.80;22.73;;;-5.10;99.90;;;;;;5076785;28;20043;-66
2022/12/13 03:15:33;;;;;;;52.63;26.75;;;-5.20;99.90;;;;;;4990185;28;20077;-66
2022/12/13 03:18:05;;;;;;;47.80;22.42;;;-5.10;99.90;;;;;;5006766;28;20046;-66
2022/12/13 03:20:31;;;;;;;45.50;24.40;;;-5.20;99.90;;;;;;4993571;28;20202;-67
2022/12/13 03:22:57;;;;;;;49.75;23.73;;;-5.10;99.90;;;;;;5006478;28;20050;-67
2022/12/13 03:25:28;;;;;;;48.85;22.38;;;-5.10;99.90;;;;;;4989932;28;20076;-67
2022/12/13 03:27:54;;;;;;;43.85;22.73;;;-5.00;99.90;;;;;;4983978;28;20055;-67
2022/12/13 03:30:19;;;;;;;40.20;22.38;;;-4.90;99.90;;;;;;5000591;28;20089;-67
2022/12/13 03:32:45;;;;;;;42.40;22.02;;;-5.00;99.90;;;;;;5003638;28;20050;-66
2022/12/13 03:35:11;;;;;;;41.35;21.13;;;-5.00;99.90;;;;;;5005806;28;20042;-66
2022/12/13 03:37:36;;;;;;;38.42;20.55;;;-5.00;99.90;;;;;;4989828;28;20093;-67
2022/12/13 03:40:02;;;;;;;39.08;20.40;;;-5.10;99.90;;;;;;5006740;28;20146;-66
2022/12/13 03:42:28;;;;;;;38.60;21.55;;;-5.10;99.90;;;;;;4990038;28;20489;-66
2022/12/13 03:44:54;;;;;;;39.42;21.25;;;-5.10;99.90;;;;;;5005803;28;20050;-66
2022/12/13 03:47:19;;;;;;;36.85;20.15;;;-5.20;99.90;;;;;;5028506;28;20053;-66
2022/12/13 03:49:45;;;;;;;37.90;20.23;;;-5.20;99.90;;;;;;5053757;28;20037;-66
2022/12/13 03:52:11;;;;;;;41.22;22.80;;;-5.30;99.90;;;;;;5065771;28;20072;-66
2022/12/13 03:54:36;;;;;;;41.08;21.58;;;-5.40;99.90;;;;;;5065131;28;20045;-66
2022/12/13 03:57:02;;;;;;;39.55;21.02;;;-5.30;99.90;;;;;;5063432;28;20041;-66
2022/12/13 03:59:28;;;;;;;40.25;22.05;;;-5.30;99.90;;;;;;5059317;28;20109;-66
2022/12/13 04:01:54;;;;;;;39.85;20.73;;;-5.30;99.90;;;;;;5066059;28;20106;-66
2022/12/13 04:04:19;;;;;;;43.05;21.02;;;-5.30;99.90;;;;;;5065668;28;20041;-66
2022/12/13 04:06:45;;;;;;;42.15;20.63;;;-5.30;99.90;;;;;;5047241;28;20053;-66
2022/12/13 04:09:11;;;;;;;42.13;23.33;;;-5.30;99.90;;;;;;5054127;28;20033;-66
2022/12/13 04:14:21;;;;;;;37.72;21.40;;;-5.30;99.90;;;;;;5063671;28;20048;-66
2022/12/13 04:16:46;;;;;;;45.40;22.45;;;-5.30;99.90;;;;;;5066047;28;20076;-66
2022/12/13 04:19:12;;;;;;;42.55;21.85;;;-5.30;99.90;;;;;;5043065;28;20037;-66
2022/12/13 04:21:38;;;;;;;43.30;22.00;;;-5.40;99.90;;;;;;5063804;28;20056;-66
2022/12/13 04:24:04;;;;;;;41.55;20.95;;;-5.40;99.90;;;;;;5045223;28;20052;-66
2022/12/13 04:26:29;;;;;;;43.42;22.92;;;-5.40;99.90;;;;;;5056466;28;20065;-66
2022/12/13 04:28:55;;;;;;;46.25;22.88;;;-5.40;99.90;;;;;;5044157;28;20091;-66
2022/12/13 04:31:21;;;;;;;40.03;21.35;;;-5.30;99.90;;;;;;5042118;28;20073;-66
2022/12/13 04:33:47;;;;;;;38.95;21.25;;;-5.30;99.90;;;;;;5080298;28;20080;-66
2022/12/13 04:36:18;;;;;;;40.30;21.15;;;-5.20;99.90;;;;;;5074307;28;20044;-66
2022/12/13 04:38:45;;;;;;;40.85;20.73;;;-5.30;99.90;;;;;;5059120;28;20050;-66
2022/12/13 04:41:16;;;;;;;43.47;21.55;;;-5.30;99.90;;;;;;5077085;28;20060;-66
2022/12/13 04:43:43;;;;;;;40.58;23.40;;;-5.30;99.90;;;;;;5080653;28;20084;-66
2022/12/13 04:46:09;;;;;;;37.20;20.48;;;-5.30;99.90;;;;;;5082222;28;20458;-66
2022/12/13 04:48:34;;;;;;;43.28;21.85;;;-5.40;99.90;;;;;;5077138;28;20041;-66
2022/12/13 04:51:00;;;;;;;35.72;20.35;;;-5.40;99.90;;;;;;5073756;28;20044;-66
2022/12/13 04:53:28;;;;;;;38.28;21.45;;;-5.50;99.90;;;;;;5069220;28;20044;-67
2022/12/13 04:55:53;;;;;;;39.63;20.55;;;-5.50;99.90;;;;;;5076177;28;20051;-66
2022/12/13 04:58:19;;;;;;;35.47;19.48;;;-5.50;99.90;;;;;;5078813;28;20040;-66
2022/12/13 05:00:45;;;;;;;37.75;20.10;;;-5.50;99.90;;;;;;5073169;28;20036;-66
2022/12/13 05:03:10;;;;;;;36.80;20.17;;;-5.70;99.90;;;;;;5071037;28;20060;-66
2022/12/13 05:05:39;;;;;;;36.50;19.42;;;-5.70;99.90;;;;;;5084201;28;20047;-67
2022/12/13 05:08:06;;;;;;;35.17;20.35;;;-5.70;99.90;;;;;;5079846;28;20040;-65
2022/12/13 05:10:33;;;;;;;38.40;20.63;;;-5.70;99.90;;;;;;5086297;28;20120;-65
2022/12/13 05:13:00;;;;;;;42.60;20.75;;;-5.60;99.90;;;;;;5082885;28;20057;-67
2022/12/13 05:15:25;;;;;;;43.80;22.75;;;-5.60;99.90;;;;;;5067460;28;20058;-65
2022/12/13 05:17:51;;;;;;;43.22;23.88;;;-5.60;99.90;;;;;;5075438;28;20040;-65
2022/12/13 05:20:17;;;;;;;40.58;22.08;;;-5.60;99.90;;;;;;5074753;28;20045;-65
2022/12/13 05:22:43;;;;;;;35.83;19.35;;;-5.50;99.90;;;;;;5064103;28;20055;-66
2022/12/13 05:25:09;;;;;;;37.80;19.63;;;-5.50;99.90;;;;;;5059992;28;20592;-66
2022/12/13 05:27:35;;;;;;;37.10;20.20;;;-5.60;99.90;;;;;;5061080;28;20117;-65
2022/12/13 05:30:01;;;;;;;34.95;19.50;;;-5.60;99.90;;;;;;5048487;28;20055;-65
2022/12/13 05:32:26;;;;;;;40.00;20.00;;;-5.70;99.90;;;;;;5078587;28;20119;-65
2022/12/13 05:34:52;;;;;;;32.90;18.80;;;-5.80;99.90;;;;;;5025196;28;20037;-65
2022/12/13 05:37:18;;;;;;;39.63;20.23;;;-5.80;99.90;;;;;;5075350;28;20056;-66
2022/12/13 05:39:43;;;;;;;40.72;20.30;;;-5.90;99.90;;;;;;5071018;28;20044;-66
2022/12/13 05:42:09;;;;;;;39.20;21.83;;;-6.00;99.90;;;;;;5061339;28;20052;-66
2022/12/13 05:44:35;;;;;;;40.30;21.77;;;-5.90;99.90;;;;;;5075459;28;20096;-65
2022/12/13 05:47:00;;;;;;;51.10;27.27;;;-5.80;99.90;;;;;;5080916;28;20032;-69
2022/12/13 05:49:26;;;;;;;50.72;25.70;;;-5.70;99.90;;;;;;5039522;28;20479;-69
2022/12/13 05:51:52;;;;;;;47.00;25.75;;;-5.50;99.90;;;;;;5053245;28;20040;-69
2022/12/13 05:54:18;;;;;;;50.92;25.90;;;-5.60;99.90;;;;;;5054346;28;20614;-68
2022/12/13 05:56:43;;;;;;;46.70;23.13;;;-5.50;99.90;;;;;;5052830;28;20378;-67
2022/12/13 05:59:09;;;;;;;45.75;23.23;;;-5.50;99.90;;;;;;5057936;28;20048;-69
2022/12/13 06:01:34;;;;;;;40.60;24.13;;;-5.60;99.90;;;;;;5056845;28;20313;-70
2022/12/13 06:04:00;;;;;;;50.35;23.48;;;-5.60;99.90;;;;;;5047603;28;20108;-71
2022/12/13 06:06:26;;;;;;;54.30;25.17;;;-5.60;99.90;;;;;;5053574;28;20041;-70
2022/12/13 06:08:51;;;;;;;52.50;26.55;;;-5.60;99.90;;;;;;5045208;28;20106;-67
2022/12/13 06:11:17;;;;;;;54.10;26.25;;;-5.50;99.90;;;;;;5059050;28;20048;-66
2022/12/13 06:13:43;;;;;;;53.70;26.20;;;-5.50;99.90;;;;;;5064819;28;20055;-66
2022/12/13 06:16:11;;;;;;;56.13;26.85;;;-5.50;99.90;;;;;;5059928;28;20040;-66
2022/12/13 06:18:36;;;;;;;57.22;28.25;;;-5.60;99.90;;;;;;5046734;28;20032;-66
2022/12/13 06:21:05;;;;;;;56.80;28.23;;;-5.50;99.90;;;;;;5053604;28;20207;-65
2022/12/13 06:23:32;;;;;;;61.95;28.70;;;-5.50;99.90;;;;;;5058482;28;20535;-68
2022/12/13 06:26:02;;;;;;;57.55;27.45;;;-5.30;99.90;;;;;;5047551;28;20052;-68
2022/12/13 06:28:27;;;;;;;55.20;27.15;;;-5.30;99.90;;;;;;5057694;28;20051;-68
2022/12/13 06:30:53;;;;;;;50.42;24.98;;;-5.30;99.90;;;;;;5042836;28;20546;-68
2022/12/13 06:33:19;;;;;;;52.58;25.33;;;-5.40;99.90;;;;;;5036093;28;20528;-67
2022/12/13 06:35:45;;;;;;;50.60;24.70;;;-5.50;99.90;;;;;;5064753;28;20052;-68
2022/12/13 06:38:12;;;;;;;54.85;26.00;;;-5.60;99.90;;;;;;5057221;28;20054;-67
2022/12/13 06:40:38;;;;;;;53.22;24.95;;;-5.60;99.90;;;;;;5044879;28;20638;-67
2022/12/13 06:43:04;;;;;;;51.75;25.35;;;-5.70;99.90;;;;;;5057296;28;20076;-68
2022/12/13 06:45:29;;;;;;;51.92;25.38;;;-5.70;99.90;;;;;;5045116;28;20048;-68
2022/12/13 06:47:56;;;;;;;50.45;25.58;;;-5.60;99.90;;;;;;5057611;28;20043;-68
2022/12/13 06:50:22;;;;;;;52.85;25.38;;;-5.60;99.90;;;;;;5030744;28;20044;-68
2022/12/13 06:52:48;;;;;;;47.22;23.38;;;-5.70;99.90;;;;;;5056678;28;20071;-69
2022/12/13 06:55:14;;;;;;;43.65;23.77;;;-5.70;99.90;;;;;;5045763;28;20056;-69
2022/12/13 06:57:40;;;;;;;49.92;23.83;;;-5.70;99.90;;;;;;5058757;28;20092;-69
2022/12/13 07:00:07;;;;;;;47.92;24.65;;;-5.80;99.90;;;;;;5045668;28;20057;-68
2022/12/13 07:02:32;;;;;;;49.47;24.35;;;-5.80;99.90;;;;;;5037807;28;20048;-66
2022/12/13 07:04:58;;;;;;;54.05;26.73;;;-5.80;99.90;;;;;;5015883;28;20082;-65
2022/12/13 07:07:25;;;;;;;46.08;24.35;;;-5.80;99.90;;;;;;5064312;28;20094;-65
2022/12/13 07:09:51;;;;;;;54.67;26.90;;;-5.80;99.90;;;;;;5051218;28;20125;-65
2022/12/13 07:12:18;;;;;;;49.92;25.17;;;-5.70;99.90;;;;;;5048671;28;20044;-65
2022/12/13 07:14:43;;;;;;;50.85;26.30;;;-5.60;99.90;;;;;;5072055;28;20048;-65
2022/12/13 07:17:09;;;;;;;44.08;24.85;;;-5.70;99.90;;;;;;5052606;28;20114;-66
2022/12/13 07:19:35;;;;;;;43.22;22.88;;;-5.70;99.90;;;;;;5067785;28;20051;-65
2022/12/13 07:22:01;;;;;;;48.97;25.25;;;-5.80;99.90;;;;;;5072600;28;20056;-65
2022/12/13 07:24:26;;;;;;;52.67;26.65;;;-5.70;99.90;;;;;;5034093;28;20137;-65
2022/12/13 07:26:52;;;;;;;60.03;29.40;;;-5.70;99.90;;;;;;5062718;28;20037;-66
2022/12/13 07:29:18;;;;;;;64.30;30.00;;;-5.70;99.90;;;;;;5066455;28;20060;-66
2022/12/13 07:31:44;;;;;;;65.63;31.00;;;-5.50;99.90;;;;;;5060470;28;20404;-66
2022/12/13 07:34:09;;;;;;;64.25;28.73;;;-5.30;99.90;;;;;;5032874;28;20055;-67
2022/12/13 07:36:35;;;;;;;68.68;30.48;;;-5.30;99.90;;;;;;5061540;28;20044;-67
2022/12/13 07:39:01;;;;;;;66.88;31.83;;;-5.30;99.90;;;;;;5065036;28;20559;-67
2022/12/13 07:41:26;;;;;;;62.35;29.67;;;-5.30;99.90;;;;;;5044350;28;20040;-67
2022/12/13 07:43:53;;;;;;;63.72;30.42;;;-5.30;99.90;;;;;;5037523;28;20056;-67
2022/12/13 07:46:19;;;;;;;55.30;27.30;;;-5.30;99.90;;;;;;5055286;28;20040;-67
2022/12/13 07:48:44;;;;;;;64.13;28.00;;;-5.30;99.90;;;;;;5074810;28;20058;-67
2022/12/13 07:51:11;;;;;;;61.47;31.80;;;-5.40;99.90;;;;;;5044989;28;20048;-67
2022/12/13 07:53:37;;;;;;;51.42;27.25;;;-5.30;99.90;;;;;;5041427;28;20514;-67
2022/12/13 07:56:05;;;;;;;52.58;26.48;;;-5.40;99.90;;;;;;5064375;28;20052;-66
2022/12/13 07:58:32;;;;;;;56.88;27.42;;;-5.50;99.90;;;;;;5047579;28;20069;-66
2022/12/13 08:01:00;;;;;;;56.22;27.40;;;-5.60;99.90;;;;;;5051210;28;20060;-66
2022/12/13 08:03:26;;;;;;;61.30;29.80;;;-5.60;99.90;;;;;;5055606;28;20048;-66
2022/12/13 08:06:02;;;;;;;61.17;28.80;;;-5.50;99.90;;;;;;5018691;28;20686;-66
2022/12/13 08:08:28;;;;;;;73.15;33.28;;;-5.40;99.90;;;;;;5058638;28;20506;-66
2022/12/13 08:10:54;;;;;;;80.50;35.75;;;-5.40;99.90;;;;;;5029269;28;20059;-66
2022/12/13 08:13:20;;;;;;;78.50;35.10;;;-5.20;99.90;;;;;;5057642;28;20048;-66
2022/12/13 08:15:46;;;;;;;82.03;35.72;;;-5.10;99.90;;;;;;5031203;28;20094;-66
2022/12/13 08:18:11;;;;;;;88.93;36.90;;;-4.90;99.90;;;;;;5045078;28;20049;-66
2022/12/13 08:20:37;;;;;;;84.15;34.83;;;-4.80;99.90;;;;;;5068129;28;20060;-66
2022/12/13 08:23:03;;;;;;;82.97;37.22;;;-4.70;99.90;;;;;;5049040;28;20224;-66
2022/12/13 08:25:29;;;;;;;74.72;36.60;;;-4.60;99.90;;;;;;5044073;28;20429;-67
2022/12/13 08:27:55;;;;;;;76.65;35.50;;;-4.60;99.90;;;;;;5048090;28;20036;-66
2022/12/13 08:30:21;;;;;;;82.30;36.17;;;-4.60;99.90;;;;;;5044116;28;20110;-66
2022/12/13 08:32:49;;;;;;;81.65;35.47;;;-4.70;99.90;;;;;;5048511;28;20091;-66
2022/12/13 08:35:15;;;;;;;81.40;35.55;;;-4.70;99.90;;;;;;5042894;28;20436;-67
2022/12/13 08:37:41;;;;;;;77.78;36.30;;;-4.70;99.90;;;;;;5054299;28;20036;-67
2022/12/13 08:40:08;;;;;;;81.95;37.88;;;-4.60;99.90;;;;;;5042448;28;20049;-66
2022/12/13 08:42:34;;;;;;;74.82;35.92;;;-4.50;99.90;;;;;;5070976;28;20103;-68
2022/12/13 08:44:59;;;;;;;71.55;35.83;;;-4.50;99.90;;;;;;5045443;28;20071;-66
2022/12/13 08:47:26;;;;;;;81.80;36.95;;;-4.40;99.90;;;;;;5069379;28;20056;-66
2022/12/13 08:49:58;;;;;;;76.45;34.45;;;-4.40;99.90;;;;;;5045491;28;20099;-66
2022/12/13 08:52:24;;;;;;;74.93;35.88;;;-4.40;99.90;;;;;;5051974;28;20052;-66
2022/12/13 08:54:50;;;;;;;76.78;36.38;;;-4.50;99.90;;;;;;5044916;28;20044;-66
2022/12/13 08:57:16;;;;;;;82.03;38.67;;;-4.50;99.90;;;;;;5067798;28;20048;-67
2022/12/13 08:59:41;;;;;;;74.97;35.58;;;-4.40;99.90;;;;;;5052532;28;20045;-67
2022/12/13 09:02:12;;;;;;;74.85;37.20;;;-4.40;99.90;;;;;;5066113;28;20352;-67
2022/12/13 09:04:38;;;;;;;69.13;35.03;;;-4.30;99.90;;;;;;5038073;28;20085;-67
2022/12/13 09:07:03;;;;;;;74.43;34.95;;;-4.20;99.90;;;;;;5071009;28;20253;-66
2022/12/13 09:09:29;;;;;;;73.15;34.45;;;-4.10;99.90;;;;;;5034986;28;20056;-67
2022/12/13 09:11:55;;;;;;;74.32;35.85;;;-4.10;99.90;;;;;;5043045;28;20045;-67
2022/12/13 09:14:21;;;;;;;76.50;35.08;;;-4.00;99.90;;;;;;5035055;28;20056;-67
2022/12/13 09:16:47;;;;;;;77.13;36.50;;;-3.90;99.90;;;;;;5062268;28;20040;-66
2022/12/13 09:19:12;;;;;;;70.85;34.05;;;-3.80;99.90;;;;;;5031541;28;20286;-67
2022/12/13 09:21:38;;;;;;;77.70;34.88;;;-3.80;99.90;;;;;;5054293;28;20104;-67
2022/12/13 09:24:04;;;;;;;83.20;36.85;;;-3.60;99.90;;;;;;5059092;28;20041;-66
2022/12/13 09:26:30;;;;;;;78.30;37.13;;;-3.60;99.90;;;;;;5063647;28;20037;-67
2022/12/13 09:28:57;;;;;;;75.13;36.97;;;-3.60;99.90;;;;;;5076519;28;20056;-66
2022/12/13 09:31:22;;;;;;;71.22;35.80;;;-3.50;99.90;;;;;;5057524;28;20055;-66
2022/12/13 09:33:48;;;;;;;74.07;35.00;;;-3.50;99.90;;;;;;5043061;28;20209;-67
2022/12/13 09:36:16;;;;;;;79.93;35.83;;;-3.40;99.90;;;;;;5004808;28;20045;-67
2022/12/13 09:38:42;;;;;;;70.47;34.15;;;-3.40;99.90;;;;;;5047300;28;20045;-66
2022/12/13 09:41:23;;;;;;;82.38;35.70;;;-3.30;99.90;;;;;;5023481;28;20134;-67
2022/12/13 09:43:53;;;;;;;78.88;36.92;;;-3.10;99.90;;;;;;5060108;28;20049;-67
2022/12/13 09:46:29;;;;;;;75.75;35.40;;;-3.00;99.90;;;;;;5047343;28;20045;-67
2022/12/13 09:48:56;;;;;;;76.13;36.50;;;-2.90;99.90;;;;;;5045630;28;20036;-66
2022/12/13 09:51:24;;;;;;;81.97;39.38;;;-2.80;99.90;;;;;;5030261;28;20045;-66
2022/12/13 09:53:51;;;;;;;75.40;35.92;;;-2.80;99.90;;;;;;5074206;28;20571;-67
2022/12/13 09:56:20;;;;;;;79.15;36.67;;;-2.70;99.90;;;;;;5029924;28;20056;-66
2022/12/13 09:58:52;;;;;;;74.38;36.55;;;-2.60;99.90;;;;;;5073654;28;20716;-66
2022/12/13 10:01:18;;;;;;;74.93;35.15;;;-2.60;99.90;;;;;;5030026;28;20060;-66
2022/12/13 10:03:48;;;;;;;71.15;35.50;;;-2.50;99.90;;;;;;5076711;28;20044;-67
2022/12/13 10:06:17;;;;;;;79.60;39.40;;;-2.30;99.90;;;;;;5056767;28;20072;-66
2022/12/13 10:08:48;;;;;;;79.88;37.10;;;-2.20;99.90;;;;;;5046472;28;20045;-67
2022/12/13 10:11:17;;;;;;;78.80;36.35;;;-2.10;99.90;;;;;;5053847;28;20056;-67
2022/12/13 10:13:49;;;;;;;77.60;37.28;;;-2.10;99.90;;;;;;5070539;28;20041;-66
2022/12/13 10:16:33;;;;;;;82.65;36.83;;;-2.00;99.90;;;;;;5030399;28;20065;-66
2022/12/13 10:19:21;;;;;;;76.88;36.55;;;-1.90;99.90;;;;;;5071241;28;20040;-66
2022/12/13 10:21:47;;;;;;;71.32;36.67;;;-1.90;99.90;;;;;;5039465;28;20052;-66
2022/12/13 10:24:16;;;;;;;72.18;36.53;;;-1.80;99.90;;;;;;5078298;28;20236;-66
2022/12/13 10:26:42;;;;;;;70.22;34.88;;;-1.80;99.90;;;;;;5064258;28;20124;-66
2022/12/13 10:29:08;;;;;;;67.90;34.28;;;-1.70;99.90;;;;;;5067315;28;20049;-66
2022/12/13 10:31:43;;;;;;;64.68;34.97;;;-1.70;99.90;;;;;;5050377;28;20479;-66
2022/12/13 10:34:24;;;;;;;72.25;37.67;;;-1.70;99.90;;;;;;5061662;28;20053;-66
2022/12/13 10:36:50;;;;;;;69.85;36.63;;;-1.60;99.90;;;;;;5047512;28;20585;-66
2022/12/13 10:39:34;;;;;;;69.65;33.85;;;-1.60;99.90;;;;;;5076049;28;20040;-66
2022/12/13 10:42:14;;;;;;;68.30;35.72;;;-1.60;99.90;;;;;;5050718;28;20060;-66
2022/12/13 10:44:40;;;;;;;68.95;35.42;;;-1.40;99.90;;;;;;5047578;28;20048;-66
2022/12/13 10:47:08;;;;;;;68.75;36.00;;;-1.40;99.90;;;;;;5044418;28;20036;-66
2022/12/13 10:49:45;;;;;;;69.78;37.55;;;-1.40;99.90;;;;;;5063304;28;20391;-71
2022/12/13 10:52:33;;;;;;;61.80;33.58;;;-1.40;99.90;;;;;;5058130;28;20052;-71
2022/12/13 10:55:06;;;;;;;70.68;38.22;;;-1.40;99.90;;;;;;5057476;28;20055;-71
2022/12/13 10:57:32;;;;;;;67.68;35.20;;;-1.40;99.90;;;;;;5062143;28;20068;-71
2022/12/13 10:59:58;;;;;;;69.65;37.13;;;-1.30;99.90;;;;;;5058709;28;20155;-72
2022/12/13 11:02:30;;;;;;;65.18;35.00;;;-1.20;99.90;;;;;;5045916;28;20116;-70
2022/12/13 11:04:57;;;;;;;65.40;34.85;;;-1.30;99.90;;;;;;5041308;28;20059;-72
2022/12/13 11:07:31;;;;;;;68.82;35.45;;;-1.10;99.90;;;;;;5039152;28;20383;-71
2022/12/13 11:10:15;;;;;;;71.25;36.70;;;-1.10;99.90;;;;;;5037774;28;20160;-71
2022/12/13 11:12:41;;;;;;;64.53;34.15;;;-1.10;99.90;;;;;;5037521;28;20041;-72
2022/12/13 11:15:14;;;;;;;64.65;33.28;;;-1.00;99.90;;;;;;5031217;28;20060;-71
2022/12/13 11:17:55;;;;;;;62.92;33.20;;;-1.00;99.90;;;;;;5045013;28;20048;-73
2022/12/13 11:20:24;;;;;;;66.05;35.88;;;-1.00;99.90;;;;;;5058077;28;20115;-72
2022/12/13 11:23:03;;;;;;;68.50;36.08;;;-0.90;99.90;;;;;;5041165;28;20289;-70
2022/12/13 11:25:42;;;;;;;62.72;34.28;;;-0.90;99.90;;;;;;5062087;28;20049;-69
2022/12/13 11:28:16;;;;;;;64.43;33.55;;;-0.80;99.90;;;;;;5056489;28;20045;-69
2022/12/13 11:30:47;;;;;;;59.22;32.67;;;-0.80;99.90;;;;;;5047066;28;20049;-70
2022/12/13 11:33:31;;;;;;;56.85;31.98;;;-0.70;99.90;;;;;;5049668;28;20040;-69
2022/12/13 11:35:57;;;;;;;62.50;32.92;;;-0.70;99.90;;;;;;5045681;28;20633;-71
2022/12/13 11:39:05;;;;;;;64.13;35.70;;;-0.70;99.90;;;;;;5055520;28;20036;-72
2022/12/13 11:41:55;;;;;;;59.47;34.00;;;-0.70;99.90;;;;;;5047136;28;20051;-72
2022/12/13 11:44:26;;;;;;;59.90;33.28;;;-0.70;99.90;;;;;;5080301;28;20104;-72
2022/12/13 11:46:58;;;;;;;56.65;33.42;;;-0.70;99.90;;;;;;5051986;28;20049;-71
2022/12/13 11:49:39;;;;;;;63.25;35.28;;;-0.70;99.90;;;;;;5056194;28;20048;-69
2022/12/13 11:52:12;;;;;;;61.38;33.75;;;-0.70;99.90;;;;;;5031974;28;20053;-69
2022/12/13 11:54:56;;;;;;;63.70;34.17;;;-0.70;99.90;;;;;;5060707;28;20044;-69
2022/12/13 11:57:41;;;;;;;61.15;35.00;;;-0.70;99.90;;;;;;5015393;28;20078;-70
2022/12/13 12:00:18;;;;;;;62.55;36.13;;;-0.60;99.90;;;;;;5048015;28;20068;-70
2022/12/13 12:02:52;;;;;;;67.10;36.28;;;-0.60;99.90;;;;;;5056301;28;20045;-71
2022/12/13 12:05:34;;;;;;;65.40;34.75;;;-0.60;99.90;;;;;;5039686;28;20120;-71
2022/12/13 12:08:09;;;;;;;63.10;35.85;;;-0.50;99.90;;;;;;5060971;28;20064;-71
2022/12/13 12:10:43;;;;;;;64.80;35.17;;;-0.50;99.90;;;;;;5025582;28;20049;-71
2022/12/13 12:13:20;;;;;;;62.88;34.97;;;-0.60;99.90;;;;;;5062321;28;20068;-71
2022/12/13 12:16:09;;;;;;;65.82;34.50;;;-0.50;99.90;;;;;;5068419;28;20467;-71
2022/12/13 12:18:35;;;;;;;64.10;36.42;;;-0.50;99.90;;;;;;5063105;28;20573;-71
2022/12/13 12:21:07;;;;;;;62.33;33.92;;;-0.60;99.90;;;;;;5036966;28;20053;-67
2022/12/13 12:23:55;;;;;;;65.22;35.92;;;-0.50;99.90;;;;;;5063185;28;20044;-67
2022/12/13 12:26:31;;;;;;;65.95;36.08;;;-0.50;99.90;;;;;;5050935;28;20060;-67
2022/12/13 12:29:19;;;;;;;61.75;35.53;;;-0.50;99.90;;;;;;5078504;28;20180;-67
2022/12/13 12:31:50;;;;;;;62.58;35.42;;;-0.40;99.90;;;;;;5037789;28;20076;-66
2022/12/13 12:34:36;;;;;;;62.92;35.35;;;-0.40;99.90;;;;;;5048838;28;20076;-67
2022/12/13 12:37:38;;;;;;;69.90;37.08;;;-0.40;99.90;;;;;;5051508;28;20538;-67
2022/12/13 12:40:19;;;;;;;60.83;34.75;;;-0.40;99.90;;;;;;5023270;28;20052;-67
2022/12/13 12:43:00;;;;;;;64.40;35.42;;;-0.40;99.90;;;;;;5040689;28;20057;-67
2022/12/13 12:45:32;;;;;;;60.88;34.13;;;-0.30;99.90;;;;;;5047462;28;20040;-67
2022/12/13 12:48:08;;;;;;;62.20;35.05;;;-0.30;99.90;;;;;;5059207;28;20063;-67
2022/12/13 12:50:46;;;;;;;62.88;34.45;;;-0.30;99.90;;;;;;5033280;28;20135;-67